Time;durP1;ratioP1;P1;durP2;ratioP2;P2;SDS_P1;SDS_P2;PMS_P1;PMS_P2;Temp;Humidity;BMP_temperature;BMP_pressure;BME280_temperature;BME280_humidity;BME280_pressure;Samples;Min_cycle;Max_cycle;Signal;HPM_P1;HPM_P2
2021/11/01 00:01:46;;;;;;;9.95;1.40;;;10.90;99.90;;;;;;6772052;87;20613;-76
2021/11/01 00:11:46;;;;;;;6.72;1.27;;;10.80;99.90;;;;;;6770948;87;20179;-77
2021/11/01 00:21:47;;;;;;;12.10;1.20;;;10.70;99.90;;;;;;6771130;87;20321;-76
2021/11/01 00:31:47;;;;;;;11.20;1.50;;;10.60;99.90;;;;;;6767274;87;20204;-74
2021/11/01 00:41:48;;;;;;;8.98;1.40;;;10.60;99.90;;;;;;6771281;87;20701;-76
2021/11/01 00:51:49;;;;;;;5.55;0.90;;;10.60;99.90;;;;;;6765430;87;20293;-77
2021/11/01 01:01:50;;;;;;;8.82;1.55;;;10.80;99.90;;;;;;6765367;87;20187;-77
2021/11/01 01:11:50;;;;;;;8.70;1.15;;;10.80;99.90;;;;;;6775974;87;20247;-75
2021/11/01 01:32:10;;;;;;;5.75;0.73;;;10.90;99.90;;;;;;6773366;87;20777;-76
2021/11/01 01:42:10;;;;;;;4.62;0.80;;;10.90;99.90;;;;;;6773589;87;20228;-75
2021/11/01 01:52:11;;;;;;;7.50;0.90;;;10.90;99.90;;;;;;6773086;87;20237;-74
2021/11/01 02:02:12;;;;;;;6.37;1.00;;;10.90;99.90;;;;;;6771692;87;20249;-76
2021/11/01 02:12:18;;;;;;;6.07;0.90;;;10.90;99.90;;;;;;6771367;87;20575;-76
2021/11/01 02:22:37;;;;;;;6.82;0.77;;;10.90;99.90;;;;;;6771317;87;20168;-74
2021/11/01 02:32:41;;;;;;;3.92;0.70;;;11.00;99.90;;;;;;6765707;87;20216;-75
2021/11/01 02:42:44;;;;;;;3.47;0.80;;;11.00;99.90;;;;;;6765927;87;20219;-75
2021/11/01 02:52:44;;;;;;;7.07;0.90;;;11.00;99.90;;;;;;6764977;87;20281;-75
2021/11/01 03:02:45;;;;;;;3.37;0.95;;;11.00;99.90;;;;;;6765582;87;20210;-75
2021/11/01 03:12:48;;;;;;;3.87;0.90;;;11.00;99.90;;;;;;6765961;87;20209;-75
2021/11/01 03:22:56;;;;;;;6.57;1.20;;;10.90;99.90;;;;;;6761998;87;20297;-75
2021/11/01 03:32:58;;;;;;;4.75;0.85;;;10.90;99.90;;;;;;6766373;87;20316;-76
2021/11/01 03:43:02;;;;;;;3.62;0.93;;;10.80;99.90;;;;;;6765264;87;20224;-75
2021/11/01 03:53:02;;;;;;;6.22;1.10;;;10.60;99.90;;;;;;6764963;87;20406;-75
2021/11/01 04:03:04;;;;;;;3.92;1.05;;;10.40;99.90;;;;;;6765183;87;20228;-75
2021/11/01 04:13:05;;;;;;;9.95;1.30;;;10.20;99.90;;;;;;6764874;87;20246;-75
2021/11/01 04:23:10;;;;;;;3.92;1.00;;;10.10;99.90;;;;;;6764304;87;20790;-75
2021/11/01 04:33:14;;;;;;;4.22;0.95;;;9.80;99.90;;;;;;6767130;87;21019;-75
2021/11/01 04:53:36;;;;;;;7.97;0.95;;;9.70;99.90;;;;;;6760160;87;20234;-77
2021/11/01 05:03:39;;;;;;;4.75;0.90;;;9.80;99.90;;;;;;6767935;87;20200;-76
2021/11/01 05:13:40;;;;;;;4.65;1.12;;;9.90;99.90;;;;;;6756513;87;20183;-75
2021/11/01 05:23:48;;;;;;;9.23;1.55;;;10.00;99.90;;;;;;6681453;87;20186;-75
2021/11/01 05:34:01;;;;;;;4.90;1.00;;;9.70;99.90;;;;;;6763185;87;20652;-75
2021/11/01 05:44:01;;;;;;;5.20;1.17;;;9.80;99.90;;;;;;6767008;87;20196;-75
2021/11/01 05:54:07;;;;;;;6.40;1.30;;;10.00;99.90;;;;;;6732904;87;20242;-76
2021/11/01 06:14:28;;;;;;;6.93;1.00;;;9.90;99.90;;;;;;6766679;87;20327;-77
2021/11/01 07:15:41;;;;;;;9.27;0.85;;;9.90;99.90;;;;;;6737053;87;20199;-76
2021/11/01 09:29:01;;;;;;;;;;;14.90;99.90;;;;;;6722560;88;20173;-77
2021/11/01 09:40:55;;;;;;;6.20;1.92;;;14.60;99.90;;;;;;6723339;88;20080;-75
2021/11/01 09:49:28;;;;;;;;;;;15.90;99.90;;;;;;6720299;88;20190;-77
2021/11/01 09:59:39;;;;;;;4.90;0.60;;;16.10;99.90;;;;;;6713681;88;20088;-77
2021/11/01 10:09:43;;;;;;;4.35;0.73;;;14.60;99.90;;;;;;6717333;88;20201;-75
2021/11/01 10:19:44;;;;;;;3.67;0.60;;;14.90;99.90;;;;;;6680675;88;20205;-75
2021/11/01 10:30:15;;;;;;;3.65;0.80;;;14.40;99.90;;;;;;6696778;88;20227;-76
2021/11/01 10:40:26;;;;;;;5.20;0.75;;;15.30;99.90;;;;;;6678272;88;20317;-77
2021/11/01 11:52:36;;;;;;;3.53;0.50;;;17.10;99.90;;;;;;6734842;88;20169;-80
2021/11/01 12:02:43;;;;;;;2.90;0.70;;;17.30;99.90;;;;;;6697226;88;20783;-77
2021/11/01 12:22:49;;;;;;;2.50;0.62;;;17.10;98.40;;;;;;6715875;88;20172;-77
2021/11/01 12:32:49;;;;;;;3.50;0.73;;;18.20;96.90;;;;;;6708298;88;20875;-77
2021/11/01 13:04:23;;;;;;;2.97;0.43;;;18.00;93.80;;;;;;6705717;88;20198;-79
2021/11/01 13:14:42;;;;;;;3.00;0.60;;;19.40;91.90;;;;;;6730462;88;20193;-77
2021/11/01 13:45:15;;;;;;;3.22;0.55;;;18.20;91.20;;;;;;6728508;88;20255;-78
2021/11/01 13:55:32;;;;;;;2.05;0.47;;;18.40;91.40;;;;;;6712985;88;20312;-77
2021/11/01 14:27:08;;;;;;;4.87;0.75;;;17.40;93.20;;;;;;6679353;88;20251;-78
2021/11/01 15:08:17;;;;;;;4.87;0.67;;;15.40;96.10;;;;;;6721198;88;20379;-77
2021/11/01 15:18:36;;;;;;;3.83;0.57;;;15.10;96.70;;;;;;6735901;77;20506;-78
2021/11/01 15:29:10;;;;;;;4.93;0.98;;;15.40;97.80;;;;;;6722894;88;20166;-77
2021/11/01 15:39:31;;;;;;;5.45;0.80;;;15.10;97.80;;;;;;6720358;88;20202;-76
2021/11/01 16:20:30;;;;;;;2.67;0.70;;;13.00;99.90;;;;;;6714196;88;20197;-78
2021/11/01 16:30:32;;;;;;;4.18;1.27;;;12.90;99.90;;;;;;6712580;88;20219;-76
2021/11/01 16:40:34;;;;;;;5.30;1.30;;;12.40;99.90;;;;;;6727365;88;20240;-76
2021/11/01 16:50:37;;;;;;;6.25;1.87;;;12.00;99.90;;;;;;6720735;88;20212;-75
2021/11/01 17:00:45;;;;;;;6.15;1.80;;;11.70;99.90;;;;;;6726640;88;20325;-77
2021/11/01 17:21:14;;;;;;;4.78;2.00;;;11.40;99.90;;;;;;6727608;88;20313;-76
2021/11/01 18:54:03;;;;;;;;;;;10.70;99.90;;;;;;6713735;88;20820;-76
2021/11/01 19:04:08;;;;;;;6.82;1.20;;;10.70;99.90;;;;;;6718342;88;20527;-76
2021/11/01 20:06:41;;;;;;;8.05;1.77;;;9.70;99.90;;;;;;6701884;88;20219;-77
2021/11/01 21:28:52;;;;;;;6.45;1.40;;;8.90;99.90;;;;;;6711669;88;20163;-76
2021/11/01 21:38:56;;;;;;;6.32;1.80;;;8.90;99.90;;;;;;6726331;88;20195;-79
2021/11/01 21:48:57;;;;;;;6.18;1.33;;;8.70;99.90;;;;;;6727584;88;20169;-78
2021/11/01 21:59:16;;;;;;;6.22;1.40;;;8.70;99.90;;;;;;6734858;88;20201;-79
2021/11/01 23:00:36;;;;;;;4.15;1.40;;;8.50;99.90;;;;;;6738997;88;20190;-78
2021/11/01 23:41:27;;;;;;;4.45;1.50;;;8.20;99.90;;;;;;6734457;88;20384;-78
2021/11/01 23:51:32;;;;;;;6.80;1.50;;;8.10;99.90;;;;;;6728758;88;20208;-77
